CheckWX is a tool to help pilots better visualize weather data.  It is not intended as a substitute for an official pre-flight weather briefing.

13:58:46 UTC

PAKH METAR
Akhiok Airport
Akhiok, Alaska, USA
Current

1 hour ago

PAKH 241256Z AUTO 00000KT 10SM OVC009 07/05 A3028 RMK AO2 SLP254 T00720050 $
Observed
May-24 @ 12:56 UTC
Visibility
10 SM
Flight Rules
IFR
Cloud Levels
  • Overcast at 900' AGL
Temperature
C / 45°F
Dewpoint
C / 41°F
Humidity
87%
Altimeter
30.28" Hg
Pressure
1025.42 hPa
Previous

2 hours ago

PAKH 241156Z AUTO 00000KT 10SM OVC009 07/06 A3028 RMK AO2 SLP255 70006 T00670056 10083 20067 58003 $
Observed
May-24 @ 11:56 UTC
Visibility
10 SM
Flight Rules
IFR
Cloud Levels
  • Overcast at 900' AGL
Temperature
C / 45°F
Dewpoint
C / 43°F
Humidity
93%
Altimeter
30.28" Hg
Pressure
1025.42 hPa
24 Hour Rain
0.06"
Previous

3 hours ago

PAKH 241056Z AUTO 27004KT 10SM OVC009 07/06 A3028 RMK AO2 SLP256 T00720061 $
Observed
May-24 @ 10:56 UTC
Wind
  • 270° at 4 KTS
Visibility
10 SM
Flight Rules
IFR
Cloud Levels
  • Overcast at 900' AGL
Temperature
C / 45°F
Dewpoint
C / 43°F
Humidity
93%
Altimeter
30.28" Hg
Pressure
1025.42 hPa